createdAt,value
2022-09-01T00:01:43.159Z,7.45
2022-09-01T00:04:13.371Z,8.00
2022-09-01T00:06:40.866Z,7.93
2022-09-01T00:09:11.363Z,8.00
2022-09-01T00:11:40.254Z,7.53
2022-09-01T00:14:10.708Z,9.63
2022-09-01T00:16:56.881Z,7.82
2022-09-01T00:19:24.395Z,9.30
2022-09-01T00:21:51.381Z,7.13
2022-09-01T00:24:19.154Z,8.03
2022-09-01T00:26:46.093Z,8.70
2022-09-01T00:29:13.183Z,9.70
2022-09-01T00:31:40.594Z,8.87
2022-09-01T00:34:07.638Z,8.13
2022-09-01T00:36:35.272Z,9.17
2022-09-01T00:39:02.738Z,9.10
2022-09-01T00:41:31.393Z,9.27
2022-09-01T00:44:01.818Z,7.97
2022-09-01T00:46:36.502Z,8.45
2022-09-01T00:49:17.129Z,8.30
2022-09-01T00:51:48.077Z,9.37
2022-09-01T00:54:21.841Z,8.90
2022-09-01T00:56:54.821Z,8.97
2022-09-01T00:59:27.013Z,8.43
2022-09-01T01:01:55.138Z,8.70
2022-09-01T01:04:22.390Z,8.40
2022-09-01T01:07:01.584Z,8.17
2022-09-01T01:09:33.134Z,7.87
2022-09-01T01:12:03.142Z,11.63
2022-09-01T01:14:31.865Z,8.43
2022-09-01T01:17:00.135Z,9.83
2022-09-01T01:20:13.167Z,8.40
2022-09-01T01:23:16.410Z,9.57
2022-09-01T01:25:50.692Z,10.10
2022-09-01T01:28:22.659Z,8.93
2022-09-01T01:30:55.344Z,8.50
2022-09-01T01:33:25.093Z,8.30
2022-09-01T01:40:15.970Z,8.83
2022-09-01T01:42:48.660Z,8.87
2022-09-01T01:45:17.739Z,10.10
2022-09-01T01:47:53.084Z,8.97
2022-09-01T01:50:27.467Z,9.50
2022-09-01T01:52:58.095Z,8.30
2022-09-01T01:55:28.990Z,8.47
2022-09-01T01:57:59.149Z,9.77
2022-09-01T02:00:30.411Z,8.77
2022-09-01T02:02:58.667Z,7.73
2022-09-01T02:05:28.968Z,7.93
2022-09-01T02:07:59.879Z,8.90
2022-09-01T02:10:33.560Z,8.63
2022-09-01T02:13:07.227Z,8.23
2022-09-01T02:15:44.366Z,8.27
2022-09-01T02:18:24.627Z,7.83
2022-09-01T02:20:53.006Z,8.13
2022-09-01T02:23:24.343Z,8.50
2022-09-01T02:28:54.759Z,8.33
2022-09-01T02:31:27.798Z,8.13
2022-09-01T02:33:54.953Z,9.03
2022-09-01T02:36:22.696Z,9.53
2022-09-01T02:38:53.647Z,7.93
2022-09-01T02:41:24.988Z,8.13
2022-09-01T02:43:51.936Z,7.77
2022-09-01T02:46:20.464Z,8.23
2022-09-01T02:48:51.508Z,8.27
2022-09-01T02:51:22.394Z,6.97
2022-09-01T02:53:52.901Z,9.70
2022-09-01T02:56:25.329Z,8.13
2022-09-01T02:58:53.938Z,9.07
2022-09-01T03:01:30.181Z,8.33
2022-09-01T03:04:01.034Z,8.97
2022-09-01T03:06:28.117Z,9.27
2022-09-01T03:08:59.554Z,7.90
2022-09-01T03:11:29.472Z,8.07
2022-09-01T03:13:56.190Z,10.27
2022-09-01T03:16:22.815Z,10.57
2022-09-01T03:18:50.636Z,9.07
2022-09-01T03:21:18.790Z,8.07
2022-09-01T03:23:46.851Z,8.50
2022-09-01T03:26:14.733Z,8.30
2022-09-01T03:28:41.753Z,7.73
2022-09-01T03:31:08.978Z,8.30
2022-09-01T03:33:36.757Z,7.93
2022-09-01T03:36:14.920Z,7.53
2022-09-01T03:38:44.147Z,7.83
2022-09-01T03:41:13.141Z,7.37
2022-09-01T03:43:47.020Z,8.40
2022-09-01T03:46:21.805Z,9.30
2022-09-01T03:48:55.169Z,7.90
2022-09-01T03:51:23.533Z,8.40
2022-09-01T03:53:54.770Z,8.60
2022-09-01T03:56:26.299Z,8.07
2022-09-01T03:58:56.129Z,8.63
2022-09-01T04:01:24.351Z,10.10
2022-09-01T04:03:52.103Z,7.83
2022-09-01T04:06:24.225Z,8.43
2022-09-01T04:08:56.424Z,7.83
2022-09-01T04:11:24.356Z,7.80
2022-09-01T04:13:52.431Z,7.77
2022-09-01T04:16:46.763Z,7.80
2022-09-01T04:19:19.979Z,8.00
2022-09-01T04:21:50.434Z,10.03
2022-09-01T04:24:18.995Z,8.10
2022-09-01T04:26:48.753Z,9.43
2022-09-01T04:29:19.270Z,9.83
2022-09-01T04:31:49.120Z,9.80
2022-09-01T04:34:16.218Z,7.70
2022-09-01T04:36:44.773Z,7.80
2022-09-01T04:39:13.248Z,9.03
2022-09-01T04:41:45.939Z,9.37
2022-09-01T04:44:16.733Z,7.77
2022-09-01T04:46:46.304Z,9.47
2022-09-01T04:49:19.646Z,8.57
2022-09-01T04:51:53.630Z,8.33
2022-09-01T04:54:22.973Z,8.83
2022-09-01T04:56:52.543Z,7.47
2022-09-01T04:59:22.234Z,8.83
2022-09-01T05:01:57.437Z,7.10
2022-09-01T05:04:27.689Z,7.57
2022-09-01T05:06:59.744Z,9.60
2022-09-01T05:09:35.615Z,8.33
2022-09-01T05:12:15.840Z,7.87
2022-09-01T05:14:48.322Z,7.57
2022-09-01T05:17:18.623Z,7.00
2022-09-01T05:19:48.630Z,9.17
2022-09-01T05:22:18.640Z,6.77
2022-09-01T05:24:55.400Z,7.03
2022-09-01T05:27:22.851Z,7.07
2022-09-01T05:29:49.720Z,7.10
2022-09-01T05:32:16.422Z,9.53
2022-09-01T05:34:45.075Z,6.93
2022-09-01T05:37:14.483Z,7.93
2022-09-01T05:39:41.179Z,6.57
2022-09-01T05:42:08.395Z,6.20
2022-09-01T05:44:44.114Z,8.07
2022-09-01T05:47:20.606Z,6.53
2022-09-01T05:49:50.316Z,6.57
2022-09-01T05:52:17.478Z,8.77
2022-09-01T05:54:47.944Z,7.43
2022-09-01T05:57:33.874Z,7.10
2022-09-01T06:00:03.544Z,7.67
2022-09-01T06:02:43.393Z,6.50
2022-09-01T06:05:15.845Z,6.50
2022-09-01T06:07:42.904Z,6.38
2022-09-01T06:10:10.758Z,5.65
2022-09-01T06:12:37.698Z,6.68
2022-09-01T06:15:15.530Z,6.90
2022-09-01T06:17:44.667Z,6.35
2022-09-01T06:20:11.226Z,6.30
2022-09-01T06:22:41.109Z,7.90
2022-09-01T06:25:09.442Z,6.22
2022-09-01T06:27:44.947Z,6.32
2022-09-01T06:30:23.049Z,7.53
2022-09-01T06:33:05.977Z,5.72
2022-09-01T06:35:33.895Z,6.22
2022-09-01T06:38:01.860Z,5.45
2022-09-01T06:40:39.539Z,4.78
2022-09-01T06:43:08.040Z,3.97
2022-09-01T06:45:49.625Z,4.10
2022-09-01T06:48:17.802Z,4.15
2022-09-01T06:53:35.228Z,5.32
2022-09-01T06:56:04.745Z,4.75
2022-09-01T06:58:33.209Z,4.13
2022-09-01T07:01:00.079Z,5.30
2022-09-01T07:03:26.946Z,4.43
2022-09-01T07:09:38.503Z,6.00
2022-09-01T07:12:25.707Z,5.03
2022-09-01T07:17:42.572Z,4.60
2022-09-01T07:20:26.797Z,4.22
2022-09-01T07:26:01.315Z,4.85
2022-09-01T07:28:41.849Z,5.30
2022-09-01T07:39:49.949Z,5.25
2022-09-01T07:45:58.670Z,9.88
2022-09-01T07:51:36.054Z,5.35
2022-09-01T07:54:03.728Z,6.15
2022-09-01T07:56:30.380Z,5.95
2022-09-01T07:58:58.570Z,5.95
2022-09-01T08:01:27.526Z,5.47
2022-09-01T08:03:58.051Z,5.40
2022-09-01T08:06:27.976Z,5.95
2022-09-01T08:08:57.663Z,4.63
2022-09-01T08:11:51.502Z,6.72
2022-09-01T08:14:18.272Z,6.40
2022-09-01T08:16:52.716Z,5.35
2022-09-01T08:19:19.991Z,5.18
2022-09-01T08:22:04.373Z,5.60
2022-09-01T08:24:49.703Z,5.43
2022-09-01T08:27:16.218Z,5.53
2022-09-01T08:29:43.241Z,5.35
2022-09-01T08:32:11.985Z,5.90
2022-09-01T08:34:38.827Z,5.65
2022-09-01T08:37:06.642Z,5.97
2022-09-01T08:39:34.084Z,6.03
2022-09-01T08:42:33.125Z,7.88
2022-09-01T08:45:02.758Z,7.50
2022-09-01T08:47:43.631Z,5.70
2022-09-01T08:50:20.793Z,6.47
2022-09-01T08:53:09.626Z,5.93
2022-09-01T08:55:44.743Z,7.53
2022-09-01T08:58:16.703Z,6.57
2022-09-01T09:01:27.573Z,5.95
2022-09-01T09:04:12.247Z,6.10
2022-09-01T09:06:53.483Z,6.50
2022-09-01T09:09:32.379Z,5.78
2022-09-01T09:12:52.688Z,5.00
2022-09-01T09:15:33.664Z,5.93
2022-09-01T09:18:20.283Z,6.45
2022-09-01T09:21:19.893Z,5.60
2022-09-01T09:23:50.874Z,5.35
2022-09-01T09:26:22.206Z,8.50
2022-09-01T09:28:50.031Z,5.93
2022-09-01T09:31:28.867Z,6.97
2022-09-01T09:33:56.281Z,5.88
2022-09-01T09:36:30.718Z,5.35
2022-09-01T09:39:17.144Z,6.03
2022-09-01T09:42:01.478Z,5.20
2022-09-01T09:44:31.835Z,6.80
2022-09-01T09:46:58.425Z,6.13
2022-09-01T09:49:37.350Z,5.68
2022-09-01T09:52:08.638Z,6.38
2022-09-01T09:54:37.192Z,5.20
2022-09-01T09:57:16.196Z,5.40
2022-09-01T09:59:58.753Z,5.68
2022-09-01T10:02:38.849Z,5.00
2022-09-01T10:05:33.614Z,5.55
2022-09-01T10:08:00.075Z,5.28
2022-09-01T10:10:57.512Z,5.45
2022-09-01T10:13:29.470Z,5.68
2022-09-01T10:16:19.292Z,5.35
2022-09-01T10:18:51.357Z,5.95
2022-09-01T10:21:27.123Z,6.45
2022-09-01T10:23:54.704Z,5.53
2022-09-01T10:26:31.666Z,5.45
2022-09-01T10:29:06.607Z,6.38
2022-09-01T10:31:34.683Z,5.18
2022-09-01T10:34:05.659Z,8.52
2022-09-01T10:36:36.704Z,6.47
2022-09-01T10:39:08.768Z,5.55
2022-09-01T10:41:59.720Z,4.93
2022-09-01T10:44:38.910Z,5.20
2022-09-01T10:47:24.198Z,4.97
2022-09-01T10:49:50.656Z,5.20
2022-09-01T10:52:43.374Z,5.93
2022-09-01T10:55:25.404Z,6.82
2022-09-01T11:01:15.611Z,4.82
2022-09-01T11:03:56.751Z,5.75
2022-09-01T11:06:42.216Z,5.07
2022-09-01T11:09:21.258Z,5.28
2022-09-01T11:12:15.139Z,6.07
2022-09-01T11:14:54.217Z,6.47
2022-09-01T11:17:25.764Z,5.25
2022-09-01T11:19:59.984Z,5.00
2022-09-01T11:22:34.735Z,5.35
2022-09-01T11:25:47.156Z,4.95
2022-09-01T11:28:18.595Z,4.63
2022-09-01T11:31:00.425Z,5.00
2022-09-01T11:33:33.970Z,5.07
2022-09-01T11:36:29.406Z,5.18
2022-09-01T11:39:04.772Z,4.10
2022-09-01T11:41:58.589Z,5.35
2022-09-01T11:44:33.914Z,4.95
2022-09-01T11:47:10.722Z,4.82
2022-09-01T11:49:48.187Z,4.60
2022-09-01T11:52:19.430Z,4.05
2022-09-01T11:54:50.058Z,4.00
2022-09-01T11:57:21.734Z,3.90
2022-09-01T11:59:48.655Z,4.00
2022-09-01T12:02:28.080Z,3.97
2022-09-01T12:04:56.213Z,3.95
2022-09-01T12:07:55.030Z,6.10
2022-09-01T12:10:33.574Z,6.47
2022-09-01T12:13:13.039Z,3.90
2022-09-01T12:16:07.106Z,3.78
2022-09-01T12:18:35.563Z,5.10
2022-09-01T12:21:04.632Z,3.58
2022-09-01T12:23:34.345Z,3.95
2022-09-01T12:26:04.206Z,3.65
2022-09-01T12:28:33.037Z,4.72
2022-09-01T12:31:04.132Z,4.82
2022-09-01T12:33:34.889Z,3.60
2022-09-01T12:36:13.667Z,3.80
2022-09-01T12:38:40.259Z,3.88
2022-09-01T12:41:40.772Z,3.78
2022-09-01T12:44:31.741Z,3.50
2022-09-01T12:47:06.717Z,3.97
2022-09-01T12:49:50.185Z,3.10
2022-09-01T12:52:19.892Z,3.15
2022-09-01T12:54:51.605Z,4.80
2022-09-01T12:57:32.002Z,3.20
2022-09-01T13:00:10.732Z,3.72
2022-09-01T13:02:40.733Z,3.53
2022-09-01T13:05:31.856Z,6.10
2022-09-01T13:08:16.393Z,4.95
2022-09-01T13:11:04.797Z,4.05
2022-09-01T13:13:31.532Z,3.30
2022-09-01T13:16:03.386Z,5.20
2022-09-01T13:18:30.407Z,3.65
2022-09-01T13:20:58.121Z,3.60
2022-09-01T13:23:24.682Z,3.28
2022-09-01T13:25:51.397Z,3.60
2022-09-01T13:28:19.229Z,3.38
2022-09-01T13:31:28.434Z,3.10
2022-09-01T13:39:12.967Z,3.13
2022-09-01T13:41:39.498Z,3.03
2022-09-01T13:44:06.151Z,3.40
2022-09-01T13:46:32.578Z,3.17
2022-09-01T13:49:02.821Z,3.30
2022-09-01T13:51:29.950Z,3.53
2022-09-01T13:53:56.482Z,4.25
2022-09-01T13:56:22.913Z,2.83
2022-09-01T13:58:49.434Z,3.78
2022-09-01T14:01:16.538Z,3.00
2022-09-01T14:03:43.933Z,3.13
2022-09-01T14:06:10.517Z,3.30
2022-09-01T14:08:37.089Z,3.03
2022-09-01T14:11:03.898Z,3.00
2022-09-01T14:13:31.463Z,2.85
2022-09-01T14:15:58.907Z,3.38
2022-09-01T14:18:32.007Z,3.83
2022-09-01T14:21:01.218Z,3.00
2022-09-01T14:23:27.954Z,3.45
2022-09-01T14:25:54.422Z,3.28
2022-09-01T14:28:22.713Z,3.15
2022-09-01T14:33:18.100Z,4.47
2022-09-01T14:35:47.970Z,3.30
2022-09-01T14:38:15.114Z,2.95
2022-09-01T14:40:43.105Z,2.90
2022-09-01T14:43:11.731Z,4.85
2022-09-01T14:45:38.273Z,3.40
2022-09-01T14:48:05.768Z,4.35
2022-09-01T14:50:32.729Z,3.03
2022-09-01T14:53:01.064Z,3.30
2022-09-01T14:55:30.045Z,3.22
2022-09-01T14:57:57.762Z,3.78
2022-09-01T15:00:27.398Z,3.40
2022-09-01T15:02:55.997Z,3.45
2022-09-01T15:05:23.058Z,3.05
2022-09-01T15:07:50.409Z,3.45
2022-09-01T15:10:24.950Z,2.65
2022-09-01T15:12:57.703Z,3.15
2022-09-01T15:15:25.131Z,4.07
2022-09-01T15:17:52.106Z,3.72
2022-09-01T15:20:37.238Z,2.90
2022-09-01T15:23:04.828Z,3.13
2022-09-01T15:25:31.287Z,3.08
2022-09-01T15:27:57.832Z,3.33
2022-09-01T15:30:24.436Z,2.85
2022-09-01T15:32:53.208Z,3.70
2022-09-01T15:35:21.252Z,3.63
2022-09-01T15:37:49.455Z,3.40
2022-09-01T15:40:17.046Z,4.82
2022-09-01T15:42:44.134Z,5.43
2022-09-01T15:45:14.900Z,3.88
2022-09-01T15:47:45.659Z,4.00
2022-09-01T15:50:21.065Z,4.10
2022-09-01T15:52:51.364Z,3.40
2022-09-01T15:55:27.375Z,4.38
2022-09-01T15:57:55.070Z,4.13
2022-09-01T16:00:25.238Z,3.70
2022-09-01T16:02:54.355Z,4.40
2022-09-01T16:05:21.030Z,4.40
2022-09-01T16:07:47.550Z,4.10
2022-09-01T16:10:14.597Z,4.03
2022-09-01T16:12:43.831Z,4.03
2022-09-01T16:15:13.532Z,3.70
2022-09-01T16:17:55.133Z,3.72
2022-09-01T16:21:14.908Z,4.60
2022-09-01T16:23:48.916Z,4.80
2022-09-01T16:26:17.666Z,4.00
2022-09-01T16:28:56.439Z,4.70
2022-09-01T16:31:25.958Z,7.05
2022-09-01T16:33:56.149Z,3.97
2022-09-01T16:36:40.566Z,3.55
2022-09-01T16:39:28.007Z,4.03
2022-09-01T16:42:19.011Z,4.38
2022-09-01T16:45:00.532Z,5.30
2022-09-01T16:47:33.377Z,3.65
2022-09-01T16:50:05.541Z,4.32
2022-09-01T16:52:56.089Z,4.28
2022-09-01T16:55:46.749Z,3.67
2022-09-01T16:58:25.435Z,3.65
2022-09-01T17:01:07.183Z,3.97
2022-09-01T17:03:42.743Z,3.83
2022-09-01T17:06:51.694Z,3.63
2022-09-01T17:09:38.782Z,4.88
2022-09-01T17:12:11.796Z,3.88
2022-09-01T17:14:47.422Z,3.75
2022-09-01T17:17:24.659Z,4.95
2022-09-01T17:19:54.226Z,3.65
2022-09-01T17:22:21.932Z,3.63
2022-09-01T17:24:56.680Z,3.45
2022-09-01T17:28:00.109Z,3.70
2022-09-01T17:30:26.857Z,3.75
2022-09-01T17:33:13.039Z,6.15
2022-09-01T17:35:53.043Z,4.30
2022-09-01T17:38:53.906Z,4.85
2022-09-01T17:41:41.923Z,3.50
2022-09-01T17:44:35.468Z,3.67
2022-09-01T17:47:23.304Z,3.53
2022-09-01T17:50:03.146Z,4.30
2022-09-01T17:52:53.302Z,4.22
2022-09-01T17:55:19.780Z,3.60
2022-09-01T17:58:06.853Z,2.90
2022-09-01T18:00:54.766Z,3.45
2022-09-01T18:03:52.375Z,3.28
2022-09-01T18:06:27.738Z,2.83
2022-09-01T18:08:58.288Z,4.10
2022-09-01T18:11:49.232Z,3.50
2022-09-01T18:14:53.369Z,2.83
2022-09-01T18:17:31.947Z,2.95
2022-09-01T18:20:07.913Z,3.00
2022-09-01T18:23:01.902Z,3.45
2022-09-01T18:25:41.462Z,3.78
2022-09-01T18:28:09.317Z,3.92
2022-09-01T18:30:55.717Z,3.88
2022-09-01T18:33:36.635Z,2.92
2022-09-01T18:36:24.601Z,3.15
2022-09-01T18:39:11.447Z,2.80
2022-09-01T18:41:55.746Z,3.28
2022-09-01T18:44:53.210Z,3.50
2022-09-01T18:47:31.802Z,3.67
2022-09-01T18:50:17.033Z,3.55
2022-09-01T18:53:10.413Z,3.30
2022-09-01T18:56:05.754Z,3.08
2022-09-01T18:58:36.648Z,3.58
2022-09-01T19:01:07.051Z,3.92
2022-09-01T19:03:43.541Z,4.32
2022-09-01T19:06:30.542Z,3.20
2022-09-01T19:09:26.064Z,2.92
2022-09-01T19:12:35.655Z,4.97
2022-09-01T19:15:08.726Z,6.07
2022-09-01T19:18:04.065Z,2.88
2022-09-01T19:20:49.894Z,3.10
2022-09-01T19:23:34.158Z,3.85
2022-09-01T19:26:06.555Z,3.75
2022-09-01T19:28:39.685Z,3.47
2022-09-01T19:31:13.092Z,2.92
2022-09-01T19:33:44.090Z,3.38
2022-09-01T19:36:18.141Z,3.97
2022-09-01T19:38:45.027Z,3.13
2022-09-01T19:41:37.409Z,3.08
2022-09-01T19:44:32.455Z,4.05
2022-09-01T19:47:11.098Z,3.28
2022-09-01T19:49:44.894Z,3.28
2022-09-01T19:52:46.011Z,3.83
2022-09-01T19:55:19.413Z,2.70
2022-09-01T19:57:57.008Z,3.05
2022-09-01T20:00:35.066Z,3.05
2022-09-01T20:03:32.946Z,3.60
2022-09-01T20:06:16.232Z,4.53
2022-09-01T20:09:05.900Z,4.78
2022-09-01T20:11:53.212Z,3.67
2022-09-01T20:14:48.294Z,2.85
2022-09-01T20:17:30.654Z,3.13
2022-09-01T20:20:07.585Z,3.25
2022-09-01T20:22:51.336Z,3.88
2022-09-01T20:25:25.852Z,2.85
2022-09-01T20:28:19.732Z,2.88
2022-09-01T20:30:53.076Z,3.72
2022-09-01T20:33:25.618Z,4.65
2022-09-01T20:36:01.930Z,3.65
2022-09-01T20:38:53.142Z,2.88
2022-09-01T20:41:37.427Z,3.38
2022-09-01T20:44:18.712Z,5.28
2022-09-01T20:46:47.432Z,2.97
2022-09-01T20:49:15.935Z,2.55
2022-09-01T20:51:57.403Z,2.95
2022-09-01T20:54:29.831Z,3.88
2022-09-01T20:57:02.439Z,3.17
2022-09-01T20:59:43.005Z,2.70
2022-09-01T21:02:31.639Z,3.28
2022-09-01T21:05:26.226Z,3.38
2022-09-01T21:08:19.733Z,3.38
2022-09-01T21:11:16.693Z,3.28
2022-09-01T21:14:07.380Z,4.25
2022-09-01T21:16:36.559Z,3.10
2022-09-01T21:19:18.382Z,3.40
2022-09-01T21:22:14.478Z,3.72
2022-09-01T21:24:43.497Z,4.05
2022-09-01T21:27:23.346Z,2.80
2022-09-01T21:29:53.487Z,3.03
2022-09-01T21:32:20.642Z,2.85
2022-09-01T21:34:48.046Z,3.35
2022-09-01T21:37:14.928Z,3.20
2022-09-01T21:39:41.328Z,4.07
2022-09-01T21:42:10.494Z,3.05
2022-09-01T21:44:37.274Z,3.15
2022-09-01T21:47:04.515Z,4.18
2022-09-01T21:49:32.245Z,3.03
2022-09-01T21:52:00.086Z,3.30
2022-09-01T21:54:26.592Z,3.70
2022-09-01T21:56:53.372Z,3.38
2022-09-01T21:59:20.098Z,4.88
2022-09-01T22:01:47.149Z,3.63
2022-09-01T22:04:13.938Z,3.88
2022-09-01T22:06:41.038Z,3.70
2022-09-01T22:09:21.318Z,4.22
2022-09-01T22:11:50.255Z,4.03
2022-09-01T22:14:19.165Z,4.57
2022-09-01T22:16:46.282Z,4.03
2022-09-01T22:19:13.000Z,5.57
2022-09-01T22:21:39.675Z,3.72
2022-09-01T22:24:06.761Z,3.50
2022-09-01T22:26:34.435Z,3.45
2022-09-01T22:29:04.526Z,3.40
2022-09-01T22:31:33.172Z,3.90
2022-09-01T22:34:00.437Z,4.70
2022-09-01T22:36:34.574Z,3.53
2022-09-01T22:39:01.518Z,3.78
2022-09-01T22:41:29.739Z,3.50
2022-09-01T22:43:57.895Z,3.85
2022-09-01T22:46:27.253Z,4.10
2022-09-01T22:48:55.805Z,4.30
2022-09-01T22:51:23.025Z,3.88
2022-09-01T22:53:49.508Z,4.45
2022-09-01T22:56:27.736Z,4.97
2022-09-01T22:58:56.757Z,5.57
2022-09-01T23:01:26.812Z,4.07
2022-09-01T23:03:53.622Z,4.88
2022-09-01T23:06:27.987Z,4.28
2022-09-01T23:08:59.197Z,4.50
2022-09-01T23:11:26.374Z,4.80
2022-09-01T23:13:53.821Z,4.63
2022-09-01T23:16:22.433Z,4.55
2022-09-01T23:18:50.089Z,5.22
2022-09-01T23:21:20.015Z,5.03
2022-09-01T23:23:47.388Z,4.50
2022-09-01T23:26:15.048Z,4.78
2022-09-01T23:28:42.869Z,4.85
2022-09-01T23:31:13.549Z,4.75
2022-09-01T23:33:40.114Z,4.40
2022-09-01T23:36:11.822Z,4.45
2022-09-01T23:38:38.842Z,4.20
2022-09-01T23:41:10.665Z,4.30
2022-09-01T23:43:38.035Z,4.47
2022-09-01T23:46:05.739Z,4.60
2022-09-01T23:48:33.423Z,5.43
2022-09-01T23:51:08.465Z,6.77
2022-09-01T23:53:37.399Z,4.80
2022-09-01T23:56:09.544Z,4.60
2022-09-01T23:58:36.878Z,4.45
